This is the latest recevied weather packets stored in our database for station/object KD7DVD-1. If no packets are shown the sender has not sent any weather packets the latest 10 day(s).
| Time | Temp. | Humidity | Pressure | Rain* | Wind** | Luminosity | Snow |
|---|---|---|---|---|---|---|---|
| 1777708816 | 12.78° C | 74% | 1016.2 hPa | 0 mm | - | - | - |
| 1777707016 | 13.33° C | 75% | 1016.3 hPa | 0 mm | - | - | - |
| 1777705216 | 13.89° C | 73% | 1016 hPa | 0 mm | - | - | - |
| 1777703416 | 15° C | 66% | 1016 hPa | 0 mm | - | - | - |
| 1777701615 | 15.56° C | 68% | 1016 hPa | 0 mm | - | - | - |
| 1777699817 | 16.11° C | 64% | 1015.4 hPa | 0 mm | - | - | - |
| 1777698017 | 16.67° C | 63% | 1015.3 hPa | 0 mm | - | - | - |
| 1777696217 | 17.22° C | 60% | 1015.1 hPa | 0 mm | - | - | - |
| 1777694417 | 17.78° C | 56% | 1014.7 hPa | 0 mm | - | - | - |
| 1777692617 | 17.78° C | 59% | 1014.6 hPa | 0 mm | - | - | - |
| 1777690817 | 18.33° C | 61% | 1014.1 hPa | 0 mm | - | - | - |
| 1777689017 | 19.44° C | 55% | 1014 hPa | 0 mm | - | - | - |
| 1777687217 | 20° C | 49% | 1014 hPa | 0 mm | - | - | - |
| 1777685417 | 20.56° C | 49% | 1014 hPa | 0 mm | - | - | - |
| 1777683617 | 21.11° C | 47% | 1014.1 hPa | 0 mm | - | - | - |
| 1777681817 | 21.67° C | 46% | 1014.2 hPa | 0 mm | - | - | - |
| 1777680017 | 22.22° C | 47% | 1014 hPa | 0 mm | - | - | - |
| 1777678217 | 22.22° C | 44% | 1014.1 hPa | 0 mm | - | - | - |
| 1777676416 | 22.22° C | 44% | 1014.4 hPa | 0 mm | - | - | - |
| 1777674617 | 22.22° C | 44% | 1014.7 hPa | 0 mm | - | - | - |
| 1777672816 | 21.67° C | 47% | 1014.8 hPa | 0 mm | - | - | - |
| 1777671016 | 21.11° C | 52% | 1014.9 hPa | 0 mm | - | - | - |
| 1777669216 | 20.56° C | 52% | 1015 hPa | 0 mm | - | - | - |
| 1777667416 | 20° C | 54% | 1015.1 hPa | 0 mm | - | - | - |
| 1777665616 | 19.44° C | 55% | 1015.2 hPa | 0 mm | - | - | - |
* Rain latest hour (hover to see other rain measurements)
** Current wind speed in m/s (hover to see current wind gust speed)